Terminal Aerodrome Forecast
Issued by NWS Mt. Holly, NJ

Home | Current Version | Previous Version | Text Only | Print | Product List | Glossary On
Versions: 1 2 3 4 5 6 7 8 9 10 11 12 13 14 15 16 17 18 19 20 21 22 23 24 25 26 27 28 29 30 31 32 33 34 35 36 37 38 39 40 41 42 43 44 45 46 47 48 49
287
FTUS41 KPHI 101740
TAFABE
TAF
KABE 101740Z 1018/1118 28014G21KT P6SM BKN040
     FM102300 27007KT P6SM BKN050
      TEMPO 1102/1105 2SM -SHSN BKN020
     FM110900 28012KT P6SM SCT040
     FM111400 28014G24KT P6SM BKN040=

USA.gov is the U.S. government's official web portal to all federal, state and local government web resources and services.